sensor_id;sensor_type;location;lat;lon;timestamp;temperature;humidity
2002;DHT22;1003;48.002;7.788;2023-04-03T00:00:52;5.90;99.90
2002;DHT22;1003;48.002;7.788;2023-04-03T00:03:19;5.80;99.90
2002;DHT22;1003;48.002;7.788;2023-04-03T00:05:47;5.70;99.90
2002;DHT22;1003;48.002;7.788;2023-04-03T00:08:15;5.70;99.90
2002;DHT22;1003;48.002;7.788;2023-04-03T00:10:43;5.70;99.90
2002;DHT22;1003;48.002;7.788;2023-04-03T00:13:10;5.80;99.90
2002;DHT22;1003;48.002;7.788;2023-04-03T00:15:38;5.70;99.90
2002;DHT22;1003;48.002;7.788;2023-04-03T00:18:06;5.50;99.90
2002;DHT22;1003;48.002;7.788;2023-04-03T00:20:33;5.60;99.90
2002;DHT22;1003;48.002;7.788;2023-04-03T00:23:01;5.60;99.90
2002;DHT22;1003;48.002;7.788;2023-04-03T00:25:30;5.60;99.90
2002;DHT22;1003;48.002;7.788;2023-04-03T00:27:57;5.60;99.90
2002;DHT22;1003;48.002;7.788;2023-04-03T00:30:24;5.60;99.90
2002;DHT22;1003;48.002;7.788;2023-04-03T00:32:51;5.50;99.90
2002;DHT22;1003;48.002;7.788;2023-04-03T00:35:20;5.40;99.90
2002;DHT22;1003;48.002;7.788;2023-04-03T00:37:50;5.40;99.90
2002;DHT22;1003;48.002;7.788;2023-04-03T00:40:17;5.50;99.90
2002;DHT22;1003;48.002;7.788;2023-04-03T00:42:48;5.60;99.90
2002;DHT22;1003;48.002;7.788;2023-04-03T00:45:30;5.60;99.90
2002;DHT22;1003;48.002;7.788;2023-04-03T00:48:01;5.60;99.90
2002;DHT22;1003;48.002;7.788;2023-04-03T00:50:33;5.50;99.90
2002;DHT22;1003;48.002;7.788;2023-04-03T00:53:04;5.50;99.90
2002;DHT22;1003;48.002;7.788;2023-04-03T00:55:33;5.30;99.90
2002;DHT22;1003;48.002;7.788;2023-04-03T00:58:03;5.30;99.90
2002;DHT22;1003;48.002;7.788;2023-04-03T01:00:33;5.40;99.90
2002;DHT22;1003;48.002;7.788;2023-04-03T01:03:02;5.30;99.90
2002;DHT22;1003;48.002;7.788;2023-04-03T01:05:29;5.30;99.90
2002;DHT22;1003;48.002;7.788;2023-04-03T01:07:57;5.30;99.90
2002;DHT22;1003;48.002;7.788;2023-04-03T01:10:24;5.20;99.90
2002;DHT22;1003;48.002;7.788;2023-04-03T01:12:52;5.20;99.90
2002;DHT22;1003;48.002;7.788;2023-04-03T01:15:22;5.10;99.90
2002;DHT22;1003;48.002;7.788;2023-04-03T01:17:51;5.20;99.90
2002;DHT22;1003;48.002;7.788;2023-04-03T01:20:55;5.10;99.90
2002;DHT22;1003;48.002;7.788;2023-04-03T01:24:05;5.20;99.90
2002;DHT22;1003;48.002;7.788;2023-04-03T01:26:42;5.30;99.90
2002;DHT22;1003;48.002;7.788;2023-04-03T01:29:10;5.20;99.90
2002;DHT22;1003;48.002;7.788;2023-04-03T01:31:47;5.20;99.90
2002;DHT22;1003;48.002;7.788;2023-04-03T01:34:16;5.10;99.90
2002;DHT22;1003;48.002;7.788;2023-04-03T01:36:43;5.10;99.90
2002;DHT22;1003;48.002;7.788;2023-04-03T01:39:10;5.10;99.90
2002;DHT22;1003;48.002;7.788;2023-04-03T01:41:38;5.10;99.90
2002;DHT22;1003;48.002;7.788;2023-04-03T01:44:05;5.10;99.90
2002;DHT22;1003;48.002;7.788;2023-04-03T01:46:33;5.10;99.90
2002;DHT22;1003;48.002;7.788;2023-04-03T01:49:01;5.10;99.90
2002;DHT22;1003;48.002;7.788;2023-04-03T01:51:29;5.10;99.90
2002;DHT22;1003;48.002;7.788;2023-04-03T01:53:56;5.20;99.90
2002;DHT22;1003;48.002;7.788;2023-04-03T01:56:23;5.20;99.90
2002;DHT22;1003;48.002;7.788;2023-04-03T01:58:50;5.20;99.90
2002;DHT22;1003;48.002;7.788;2023-04-03T02:01:17;5.20;99.90
2002;DHT22;1003;48.002;7.788;2023-04-03T02:03:44;5.30;99.90
2002;DHT22;1003;48.002;7.788;2023-04-03T02:06:12;5.20;99.90
2002;DHT22;1003;48.002;7.788;2023-04-03T02:08:39;5.30;99.90
2002;DHT22;1003;48.002;7.788;2023-04-03T02:11:07;5.20;99.90
2002;DHT22;1003;48.002;7.788;2023-04-03T02:13:34;5.30;99.90
2002;DHT22;1003;48.002;7.788;2023-04-03T02:16:06;5.30;99.90
2002;DHT22;1003;48.002;7.788;2023-04-03T02:18:35;5.30;99.90
2002;DHT22;1003;48.002;7.788;2023-04-03T02:21:03;5.20;99.90
2002;DHT22;1003;48.002;7.788;2023-04-03T02:23:31;5.00;99.90
2002;DHT22;1003;48.002;7.788;2023-04-03T02:26:06;4.90;99.90
2002;DHT22;1003;48.002;7.788;2023-04-03T02:28:34;5.00;99.90
2002;DHT22;1003;48.002;7.788;2023-04-03T02:31:03;4.90;99.90
2002;DHT22;1003;48.002;7.788;2023-04-03T02:33:32;4.80;99.90
2002;DHT22;1003;48.002;7.788;2023-04-03T02:35:59;4.80;99.90
2002;DHT22;1003;48.002;7.788;2023-04-03T02:38:26;4.80;99.90
2002;DHT22;1003;48.002;7.788;2023-04-03T02:40:59;4.90;99.90
2002;DHT22;1003;48.002;7.788;2023-04-03T02:43:27;4.90;99.90
2002;DHT22;1003;48.002;7.788;2023-04-03T02:45:54;4.90;99.90
2002;DHT22;1003;48.002;7.788;2023-04-03T02:48:21;4.80;99.90
2002;DHT22;1003;48.002;7.788;2023-04-03T02:50:49;4.60;99.90
2002;DHT22;1003;48.002;7.788;2023-04-03T02:53:16;4.60;99.90
2002;DHT22;1003;48.002;7.788;2023-04-03T02:55:44;4.60;99.90
2002;DHT22;1003;48.002;7.788;2023-04-03T02:58:12;4.40;99.90
2002;DHT22;1003;48.002;7.788;2023-04-03T03:00:40;4.50;99.90
2002;DHT22;1003;48.002;7.788;2023-04-03T03:03:07;4.40;99.90
2002;DHT22;1003;48.002;7.788;2023-04-03T03:05:34;4.50;99.90
2002;DHT22;1003;48.002;7.788;2023-04-03T03:08:01;4.40;99.90
2002;DHT22;1003;48.002;7.788;2023-04-03T03:10:28;4.40;99.90
2002;DHT22;1003;48.002;7.788;2023-04-03T03:12:55;4.30;99.90
2002;DHT22;1003;48.002;7.788;2023-04-03T03:15:24;4.30;99.90
2002;DHT22;1003;48.002;7.788;2023-04-03T03:17:51;4.40;99.90
2002;DHT22;1003;48.002;7.788;2023-04-03T03:20:18;4.30;99.90
2002;DHT22;1003;48.002;7.788;2023-04-03T03:22:46;4.20;99.90
2002;DHT22;1003;48.002;7.788;2023-04-03T03:25:13;4.10;99.90
2002;DHT22;1003;48.002;7.788;2023-04-03T03:27:40;4.10;99.90
2002;DHT22;1003;48.002;7.788;2023-04-03T03:30:08;4.20;99.90
2002;DHT22;1003;48.002;7.788;2023-04-03T03:32:37;4.40;99.90
2002;DHT22;1003;48.002;7.788;2023-04-03T03:35:04;4.20;99.90
2002;DHT22;1003;48.002;7.788;2023-04-03T03:37:31;4.10;99.90
2002;DHT22;1003;48.002;7.788;2023-04-03T03:39:58;4.10;99.90
2002;DHT22;1003;48.002;7.788;2023-04-03T03:42:25;4.30;99.90
2002;DHT22;1003;48.002;7.788;2023-04-03T03:44:52;4.40;99.90
2002;DHT22;1003;48.002;7.788;2023-04-03T03:47:19;4.50;99.90
2002;DHT22;1003;48.002;7.788;2023-04-03T03:49:48;4.40;99.90
2002;DHT22;1003;48.002;7.788;2023-04-03T03:52:15;4.60;99.90
2002;DHT22;1003;48.002;7.788;2023-04-03T03:54:42;4.70;99.90
2002;DHT22;1003;48.002;7.788;2023-04-03T03:57:09;4.70;99.90
2002;DHT22;1003;48.002;7.788;2023-04-03T03:59:36;4.60;99.90
2002;DHT22;1003;48.002;7.788;2023-04-03T04:02:03;4.50;99.90
2002;DHT22;1003;48.002;7.788;2023-04-03T04:04:30;4.40;99.90
2002;DHT22;1003;48.002;7.788;2023-04-03T04:06:58;4.40;99.90
2002;DHT22;1003;48.002;7.788;2023-04-03T04:09:26;4.50;99.90
2002;DHT22;1003;48.002;7.788;2023-04-03T04:11:53;4.50;99.90
2002;DHT22;1003;48.002;7.788;2023-04-03T04:14:20;4.60;99.90
2002;DHT22;1003;48.002;7.788;2023-04-03T04:16:47;4.70;99.90
2002;DHT22;1003;48.002;7.788;2023-04-03T04:19:14;4.70;99.90
2002;DHT22;1003;48.002;7.788;2023-04-03T04:21:41;4.60;99.90
2002;DHT22;1003;48.002;7.788;2023-04-03T04:24:10;4.80;99.90
2002;DHT22;1003;48.002;7.788;2023-04-03T04:26:37;4.80;99.90
2002;DHT22;1003;48.002;7.788;2023-04-03T04:29:04;4.60;99.90
2002;DHT22;1003;48.002;7.788;2023-04-03T04:31:31;4.80;99.90
2002;DHT22;1003;48.002;7.788;2023-04-03T04:33:58;4.90;99.90
2002;DHT22;1003;48.002;7.788;2023-04-03T04:36:25;4.80;99.90
2002;DHT22;1003;48.002;7.788;2023-04-03T04:38:52;4.70;99.90
2002;DHT22;1003;48.002;7.788;2023-04-03T04:41:21;4.70;99.90
2002;DHT22;1003;48.002;7.788;2023-04-03T04:43:49;4.80;99.90
2002;DHT22;1003;48.002;7.788;2023-04-03T04:46:18;4.90;99.90
2002;DHT22;1003;48.002;7.788;2023-04-03T04:48:45;4.80;99.90
2002;DHT22;1003;48.002;7.788;2023-04-03T04:51:13;4.70;99.90
2002;DHT22;1003;48.002;7.788;2023-04-03T04:53:41;4.80;99.90
2002;DHT22;1003;48.002;7.788;2023-04-03T04:56:09;4.60;99.90
2002;DHT22;1003;48.002;7.788;2023-04-03T04:58:38;4.70;99.90
2002;DHT22;1003;48.002;7.788;2023-04-03T05:01:06;4.70;99.90
2002;DHT22;1003;48.002;7.788;2023-04-03T05:03:34;4.70;99.90
2002;DHT22;1003;48.002;7.788;2023-04-03T05:06:02;4.70;99.90
2002;DHT22;1003;48.002;7.788;2023-04-03T05:08:30;4.70;99.90
2002;DHT22;1003;48.002;7.788;2023-04-03T05:10:57;4.80;99.90
2002;DHT22;1003;48.002;7.788;2023-04-03T05:13:24;4.70;99.90
2002;DHT22;1003;48.002;7.788;2023-04-03T05:15:53;4.70;99.90
2002;DHT22;1003;48.002;7.788;2023-04-03T05:18:20;4.70;99.90
2002;DHT22;1003;48.002;7.788;2023-04-03T05:20:48;4.60;99.90
2002;DHT22;1003;48.002;7.788;2023-04-03T05:23:16;4.70;99.90
2002;DHT22;1003;48.002;7.788;2023-04-03T05:25:44;4.80;99.90
2002;DHT22;1003;48.002;7.788;2023-04-03T05:28:12;4.80;99.90
2002;DHT22;1003;48.002;7.788;2023-04-03T05:30:39;4.90;99.90
2002;DHT22;1003;48.002;7.788;2023-04-03T05:33:08;4.80;99.90
2002;DHT22;1003;48.002;7.788;2023-04-03T05:35:36;4.80;99.90
2002;DHT22;1003;48.002;7.788;2023-04-03T05:38:04;4.90;99.90
2002;DHT22;1003;48.002;7.788;2023-04-03T05:40:31;4.80;99.90
2002;DHT22;1003;48.002;7.788;2023-04-03T05:42:58;4.80;99.90
2002;DHT22;1003;48.002;7.788;2023-04-03T05:45:25;4.80;99.90
2002;DHT22;1003;48.002;7.788;2023-04-03T05:47:52;5.10;99.90
2002;DHT22;1003;48.002;7.788;2023-04-03T05:50:21;5.00;99.90
2002;DHT22;1003;48.002;7.788;2023-04-03T05:52:51;5.00;99.90
2002;DHT22;1003;48.002;7.788;2023-04-03T05:55:21;5.00;99.90
2002;DHT22;1003;48.002;7.788;2023-04-03T05:57:48;5.00;99.90
2002;DHT22;1003;48.002;7.788;2023-04-03T06:00:16;4.90;99.90
2002;DHT22;1003;48.002;7.788;2023-04-03T06:02:44;5.10;99.90
2002;DHT22;1003;48.002;7.788;2023-04-03T06:05:11;5.20;99.90
2002;DHT22;1003;48.002;7.788;2023-04-03T06:07:40;5.20;99.90
2002;DHT22;1003;48.002;7.788;2023-04-03T06:10:08;5.20;99.90
2002;DHT22;1003;48.002;7.788;2023-04-03T06:12:37;5.40;99.90
2002;DHT22;1003;48.002;7.788;2023-04-03T06:15:07;5.40;99.90
2002;DHT22;1003;48.002;7.788;2023-04-03T06:17:35;5.40;99.90
2002;DHT22;1003;48.002;7.788;2023-04-03T06:20:04;5.40;99.90
2002;DHT22;1003;48.002;7.788;2023-04-03T06:22:33;5.50;99.90
2002;DHT22;1003;48.002;7.788;2023-04-03T06:25:01;5.40;99.90
2002;DHT22;1003;48.002;7.788;2023-04-03T06:27:29;5.60;99.90
2002;DHT22;1003;48.002;7.788;2023-04-03T06:29:56;5.80;99.90
2002;DHT22;1003;48.002;7.788;2023-04-03T06:32:23;5.80;99.90
2002;DHT22;1003;48.002;7.788;2023-04-03T06:34:50;5.90;99.90
2002;DHT22;1003;48.002;7.788;2023-04-03T06:37:21;5.90;99.90
2002;DHT22;1003;48.002;7.788;2023-04-03T06:39:51;6.00;99.90
2002;DHT22;1003;48.002;7.788;2023-04-03T06:42:20;6.10;99.90
2002;DHT22;1003;48.002;7.788;2023-04-03T06:44:47;6.10;99.90
2002;DHT22;1003;48.002;7.788;2023-04-03T06:47:15;6.20;99.90
2002;DHT22;1003;48.002;7.788;2023-04-03T06:49:44;6.40;99.90
2002;DHT22;1003;48.002;7.788;2023-04-03T06:52:12;6.40;99.90
2002;DHT22;1003;48.002;7.788;2023-04-03T06:54:39;6.30;99.90
2002;DHT22;1003;48.002;7.788;2023-04-03T06:57:06;6.40;99.90
2002;DHT22;1003;48.002;7.788;2023-04-03T06:59:35;6.40;99.90
2002;DHT22;1003;48.002;7.788;2023-04-03T07:02:03;6.40;99.90
2002;DHT22;1003;48.002;7.788;2023-04-03T07:04:30;6.30;99.90
2002;DHT22;1003;48.002;7.788;2023-04-03T07:06:57;6.50;99.90
2002;DHT22;1003;48.002;7.788;2023-04-03T07:09:24;6.80;99.90
2002;DHT22;1003;48.002;7.788;2023-04-03T07:11:51;6.90;99.90
2002;DHT22;1003;48.002;7.788;2023-04-03T07:14:18;7.00;99.90
2002;DHT22;1003;48.002;7.788;2023-04-03T07:16:48;7.10;99.90
2002;DHT22;1003;48.002;7.788;2023-04-03T07:19:15;7.00;99.90
2002;DHT22;1003;48.002;7.788;2023-04-03T07:21:43;7.00;99.90
2002;DHT22;1003;48.002;7.788;2023-04-03T07:24:10;7.00;99.90
2002;DHT22;1003;48.002;7.788;2023-04-03T07:26:38;7.00;99.90
2002;DHT22;1003;48.002;7.788;2023-04-03T07:29:05;7.00;99.90
2002;DHT22;1003;48.002;7.788;2023-04-03T07:31:34;7.20;99.90
2002;DHT22;1003;48.002;7.788;2023-04-03T07:34:03;7.20;99.90
2002;DHT22;1003;48.002;7.788;2023-04-03T07:36:30;7.40;99.90
2002;DHT22;1003;48.002;7.788;2023-04-03T07:38:58;7.70;99.90
2002;DHT22;1003;48.002;7.788;2023-04-03T07:41:26;8.00;99.90
2002;DHT22;1003;48.002;7.788;2023-04-03T07:43:54;8.10;99.90
2002;DHT22;1003;48.002;7.788;2023-04-03T07:46:22;7.90;99.90
2002;DHT22;1003;48.002;7.788;2023-04-03T07:48:49;8.00;99.90
2002;DHT22;1003;48.002;7.788;2023-04-03T07:51:20;8.20;99.90
2002;DHT22;1003;48.002;7.788;2023-04-03T07:53:47;8.60;99.90
2002;DHT22;1003;48.002;7.788;2023-04-03T07:56:16;8.90;99.90
2002;DHT22;1003;48.002;7.788;2023-04-03T07:58:43;8.60;99.90
2002;DHT22;1003;48.002;7.788;2023-04-03T08:01:10;8.40;99.90
2002;DHT22;1003;48.002;7.788;2023-04-03T08:03:38;8.60;99.90
2002;DHT22;1003;48.002;7.788;2023-04-03T08:06:07;8.70;99.90
2002;DHT22;1003;48.002;7.788;2023-04-03T08:08:36;8.70;99.90
2002;DHT22;1003;48.002;7.788;2023-04-03T08:11:03;8.60;99.90
2002;DHT22;1003;48.002;7.788;2023-04-03T08:13:32;8.60;99.90
2002;DHT22;1003;48.002;7.788;2023-04-03T08:16:07;8.50;99.90
2002;DHT22;1003;48.002;7.788;2023-04-03T08:18:36;8.30;99.90
2002;DHT22;1003;48.002;7.788;2023-04-03T08:21:06;8.60;99.90
2002;DHT22;1003;48.002;7.788;2023-04-03T08:23:34;8.60;99.90
2002;DHT22;1003;48.002;7.788;2023-04-03T08:26:07;8.30;99.90
2002;DHT22;1003;48.002;7.788;2023-04-03T08:28:35;8.50;99.90
2002;DHT22;1003;48.002;7.788;2023-04-03T08:31:04;8.20;99.90
2002;DHT22;1003;48.002;7.788;2023-04-03T08:33:33;8.20;99.90
2002;DHT22;1003;48.002;7.788;2023-04-03T08:36:03;8.20;99.90
2002;DHT22;1003;48.002;7.788;2023-04-03T08:38:32;8.40;99.90
2002;DHT22;1003;48.002;7.788;2023-04-03T08:41:11;8.30;99.90
2002;DHT22;1003;48.002;7.788;2023-04-03T08:43:56;8.20;99.90
2002;DHT22;1003;48.002;7.788;2023-04-03T08:46:36;7.90;99.90
2002;DHT22;1003;48.002;7.788;2023-04-03T08:49:20;7.90;99.90
2002;DHT22;1003;48.002;7.788;2023-04-03T08:51:54;8.00;99.90
2002;DHT22;1003;48.002;7.788;2023-04-03T08:54:29;8.00;99.90
2002;DHT22;1003;48.002;7.788;2023-04-03T08:57:03;8.00;99.90
2002;DHT22;1003;48.002;7.788;2023-04-03T08:59:34;8.10;99.90
2002;DHT22;1003;48.002;7.788;2023-04-03T09:02:21;7.90;99.90
2002;DHT22;1003;48.002;7.788;2023-04-03T09:04:53;7.90;99.90
2002;DHT22;1003;48.002;7.788;2023-04-03T09:07:32;7.90;99.90
2002;DHT22;1003;48.002;7.788;2023-04-03T09:10:04;7.90;99.90
2002;DHT22;1003;48.002;7.788;2023-04-03T09:12:37;8.00;99.90
2002;DHT22;1003;48.002;7.788;2023-04-03T09:15:15;8.20;99.90
2002;DHT22;1003;48.002;7.788;2023-04-03T09:17:53;8.10;99.90
2002;DHT22;1003;48.002;7.788;2023-04-03T09:20:36;7.90;99.90
2002;DHT22;1003;48.002;7.788;2023-04-03T09:23:22;7.80;99.90
2002;DHT22;1003;48.002;7.788;2023-04-03T09:26:00;7.80;99.90
2002;DHT22;1003;48.002;7.788;2023-04-03T09:28:33;7.80;99.90
2002;DHT22;1003;48.002;7.788;2023-04-03T09:31:05;7.80;99.90
2002;DHT22;1003;48.002;7.788;2023-04-03T09:33:44;8.10;99.90
2002;DHT22;1003;48.002;7.788;2023-04-03T09:36:12;8.50;99.90
2002;DHT22;1003;48.002;7.788;2023-04-03T09:38:39;8.60;99.90
2002;DHT22;1003;48.002;7.788;2023-04-03T09:41:13;8.20;99.90
2002;DHT22;1003;48.002;7.788;2023-04-03T09:43:53;8.20;99.90
2002;DHT22;1003;48.002;7.788;2023-04-03T09:46:30;8.30;99.90
2002;DHT22;1003;48.002;7.788;2023-04-03T09:49:00;8.70;99.90
2002;DHT22;1003;48.002;7.788;2023-04-03T09:51:29;8.60;99.90
2002;DHT22;1003;48.002;7.788;2023-04-03T09:53:57;8.50;99.90
2002;DHT22;1003;48.002;7.788;2023-04-03T09:56:26;8.60;99.90
2002;DHT22;1003;48.002;7.788;2023-04-03T09:59:13;8.90;99.90
2002;DHT22;1003;48.002;7.788;2023-04-03T10:01:43;8.90;99.90
2002;DHT22;1003;48.002;7.788;2023-04-03T10:04:24;8.90;99.90
2002;DHT22;1003;48.002;7.788;2023-04-03T10:06:53;8.70;99.90
2002;DHT22;1003;48.002;7.788;2023-04-03T10:09:22;8.80;99.90
2002;DHT22;1003;48.002;7.788;2023-04-03T10:12:00;8.90;99.90
2002;DHT22;1003;48.002;7.788;2023-04-03T10:14:32;8.80;99.90
2002;DHT22;1003;48.002;7.788;2023-04-03T10:17:15;8.70;99.90
2002;DHT22;1003;48.002;7.788;2023-04-03T10:19:51;9.10;99.90
2002;DHT22;1003;48.002;7.788;2023-04-03T10:22:32;9.20;99.90
2002;DHT22;1003;48.002;7.788;2023-04-03T10:25:15;9.40;99.90
2002;DHT22;1003;48.002;7.788;2023-04-03T10:27:53;9.50;99.90
2002;DHT22;1003;48.002;7.788;2023-04-03T10:30:34;9.50;99.90
2002;DHT22;1003;48.002;7.788;2023-04-03T10:33:20;9.30;99.90
2002;DHT22;1003;48.002;7.788;2023-04-03T10:36:06;9.10;99.90
2002;DHT22;1003;48.002;7.788;2023-04-03T10:38:43;9.30;99.90
2002;DHT22;1003;48.002;7.788;2023-04-03T10:41:24;9.50;99.90
2002;DHT22;1003;48.002;7.788;2023-04-03T10:44:06;9.40;99.90
2002;DHT22;1003;48.002;7.788;2023-04-03T10:46:47;9.40;99.90
2002;DHT22;1003;48.002;7.788;2023-04-03T10:49:26;9.00;99.90
2002;DHT22;1003;48.002;7.788;2023-04-03T10:52:11;8.90;99.90
2002;DHT22;1003;48.002;7.788;2023-04-03T10:54:46;9.00;99.90
2002;DHT22;1003;48.002;7.788;2023-04-03T10:57:24;9.00;99.90
2002;DHT22;1003;48.002;7.788;2023-04-03T10:59:56;8.90;99.90
2002;DHT22;1003;48.002;7.788;2023-04-03T11:02:29;9.30;99.90
2002;DHT22;1003;48.002;7.788;2023-04-03T11:05:02;9.30;99.90
2002;DHT22;1003;48.002;7.788;2023-04-03T11:07:38;9.40;99.90
2002;DHT22;1003;48.002;7.788;2023-04-03T11:10:13;9.40;99.90
2002;DHT22;1003;48.002;7.788;2023-04-03T11:12:53;9.30;99.90
2002;DHT22;1003;48.002;7.788;2023-04-03T11:15:27;9.20;99.90
2002;DHT22;1003;48.002;7.788;2023-04-03T11:18:04;9.60;99.90
2002;DHT22;1003;48.002;7.788;2023-04-03T11:20:35;9.40;99.90
2002;DHT22;1003;48.002;7.788;2023-04-03T11:23:09;9.30;99.90
2002;DHT22;1003;48.002;7.788;2023-04-03T11:25:49;9.30;99.90
2002;DHT22;1003;48.002;7.788;2023-04-03T11:28:19;9.30;99.90
2002;DHT22;1003;48.002;7.788;2023-04-03T11:30:50;9.50;99.90
2002;DHT22;1003;48.002;7.788;2023-04-03T11:33:36;9.40;99.90
2002;DHT22;1003;48.002;7.788;2023-04-03T11:36:18;9.70;99.90
2002;DHT22;1003;48.002;7.788;2023-04-03T11:38:49;9.40;99.90
2002;DHT22;1003;48.002;7.788;2023-04-03T11:41:28;9.30;99.90
2002;DHT22;1003;48.002;7.788;2023-04-03T11:44:00;9.60;99.90
2002;DHT22;1003;48.002;7.788;2023-04-03T11:46:51;9.50;99.90
2002;DHT22;1003;48.002;7.788;2023-04-03T11:49:56;9.40;99.90
2002;DHT22;1003;48.002;7.788;2023-04-03T11:52:55;9.20;99.90
2002;DHT22;1003;48.002;7.788;2023-04-03T11:55:52;9.20;99.90
2002;DHT22;1003;48.002;7.788;2023-04-03T11:58:22;9.20;99.90
2002;DHT22;1003;48.002;7.788;2023-04-03T12:00:56;9.50;99.90
2002;DHT22;1003;48.002;7.788;2023-04-03T12:07:00;10.50;99.90
2002;DHT22;1003;48.002;7.788;2023-04-03T12:10:17;10.60;99.90
2002;DHT22;1003;48.002;7.788;2023-04-03T12:12:58;10.80;99.90
2002;DHT22;1003;48.002;7.788;2023-04-03T12:15:51;10.00;99.90
2002;DHT22;1003;48.002;7.788;2023-04-03T12:18:57;9.90;99.90
2002;DHT22;1003;48.002;7.788;2023-04-03T12:24:46;10.50;99.90
2002;DHT22;1003;48.002;7.788;2023-04-03T12:27:30;10.00;99.90
2002;DHT22;1003;48.002;7.788;2023-04-03T12:30:13;9.60;99.90
2002;DHT22;1003;48.002;7.788;2023-04-03T12:33:13;9.40;99.90
2002;DHT22;1003;48.002;7.788;2023-04-03T12:35:57;9.30;99.90
2002;DHT22;1003;48.002;7.788;2023-04-03T12:38:41;9.50;99.90
2002;DHT22;1003;48.002;7.788;2023-04-03T12:41:30;9.40;99.90
2002;DHT22;1003;48.002;7.788;2023-04-03T12:44:31;9.40;99.90
2002;DHT22;1003;48.002;7.788;2023-04-03T12:47:22;9.40;99.90
2002;DHT22;1003;48.002;7.788;2023-04-03T12:49:53;9.10;99.90
2002;DHT22;1003;48.002;7.788;2023-04-03T12:52:32;8.90;99.90
2002;DHT22;1003;48.002;7.788;2023-04-03T12:55:08;9.00;99.90
2002;DHT22;1003;48.002;7.788;2023-04-03T12:57:43;8.80;99.90
2002;DHT22;1003;48.002;7.788;2023-04-03T13:00:38;8.60;99.90
2002;DHT22;1003;48.002;7.788;2023-04-03T13:03:06;8.80;99.90
2002;DHT22;1003;48.002;7.788;2023-04-03T13:05:49;9.10;99.90
2002;DHT22;1003;48.002;7.788;2023-04-03T13:08:17;9.10;99.90
2002;DHT22;1003;48.002;7.788;2023-04-03T13:10:54;9.10;99.90
2002;DHT22;1003;48.002;7.788;2023-04-03T13:13:26;9.10;99.90
2002;DHT22;1003;48.002;7.788;2023-04-03T13:15:54;9.10;99.90
2002;DHT22;1003;48.002;7.788;2023-04-03T13:18:23;8.90;99.90
2002;DHT22;1003;48.002;7.788;2023-04-03T13:20:52;9.20;99.90
2002;DHT22;1003;48.002;7.788;2023-04-03T13:23:21;8.90;99.90
2002;DHT22;1003;48.002;7.788;2023-04-03T13:25:50;8.90;99.90
2002;DHT22;1003;48.002;7.788;2023-04-03T13:28:20;8.90;99.90
2002;DHT22;1003;48.002;7.788;2023-04-03T13:31:00;8.70;99.90
2002;DHT22;1003;48.002;7.788;2023-04-03T13:33:32;8.90;99.90
2002;DHT22;1003;48.002;7.788;2023-04-03T13:36:06;9.20;99.90
2002;DHT22;1003;48.002;7.788;2023-04-03T13:38:38;9.10;99.90
2002;DHT22;1003;48.002;7.788;2023-04-03T13:41:23;9.10;99.90
2002;DHT22;1003;48.002;7.788;2023-04-03T13:43:51;9.00;99.90
2002;DHT22;1003;48.002;7.788;2023-04-03T13:46:26;8.70;99.90
2002;DHT22;1003;48.002;7.788;2023-04-03T13:48:56;8.70;99.90
2002;DHT22;1003;48.002;7.788;2023-04-03T13:51:24;8.90;99.90
2002;DHT22;1003;48.002;7.788;2023-04-03T13:53:55;8.80;99.90
2002;DHT22;1003;48.002;7.788;2023-04-03T13:56:27;9.00;99.90
2002;DHT22;1003;48.002;7.788;2023-04-03T13:59:05;8.90;99.90
2002;DHT22;1003;48.002;7.788;2023-04-03T14:01:52;9.10;99.90
2002;DHT22;1003;48.002;7.788;2023-04-03T14:04:22;9.30;99.90
2002;DHT22;1003;48.002;7.788;2023-04-03T14:06:52;9.30;99.90
2002;DHT22;1003;48.002;7.788;2023-04-03T14:09:21;8.90;99.90
2002;DHT22;1003;48.002;7.788;2023-04-03T14:11:52;8.90;99.90
2002;DHT22;1003;48.002;7.788;2023-04-03T14:14:24;8.70;99.90
2002;DHT22;1003;48.002;7.788;2023-04-03T14:17:00;8.90;99.90
2002;DHT22;1003;48.002;7.788;2023-04-03T14:19:31;9.00;99.90
2002;DHT22;1003;48.002;7.788;2023-04-03T14:22:06;9.10;99.90
2002;DHT22;1003;48.002;7.788;2023-04-03T14:24:39;8.90;99.90
2002;DHT22;1003;48.002;7.788;2023-04-03T14:27:15;8.70;99.90
2002;DHT22;1003;48.002;7.788;2023-04-03T14:29:44;8.60;99.90
2002;DHT22;1003;48.002;7.788;2023-04-03T14:32:19;8.50;99.90
2002;DHT22;1003;48.002;7.788;2023-04-03T14:34:48;8.50;99.90
2002;DHT22;1003;48.002;7.788;2023-04-03T14:37:18;8.70;99.90
2002;DHT22;1003;48.002;7.788;2023-04-03T14:39:49;8.60;99.90
2002;DHT22;1003;48.002;7.788;2023-04-03T14:42:19;8.50;99.90
2002;DHT22;1003;48.002;7.788;2023-04-03T14:44:48;8.60;99.90
2002;DHT22;1003;48.002;7.788;2023-04-03T14:47:19;8.50;99.90
2002;DHT22;1003;48.002;7.788;2023-04-03T14:49:47;8.50;99.90
2002;DHT22;1003;48.002;7.788;2023-04-03T14:52:19;8.50;99.90
2002;DHT22;1003;48.002;7.788;2023-04-03T14:54:50;8.50;99.90
2002;DHT22;1003;48.002;7.788;2023-04-03T14:57:27;8.40;99.90
2002;DHT22;1003;48.002;7.788;2023-04-03T14:59:56;8.40;99.90
2002;DHT22;1003;48.002;7.788;2023-04-03T15:02:29;8.40;99.90
2002;DHT22;1003;48.002;7.788;2023-04-03T15:04:58;8.20;99.90
2002;DHT22;1003;48.002;7.788;2023-04-03T15:07:30;8.20;99.90
2002;DHT22;1003;48.002;7.788;2023-04-03T15:10:02;8.30;99.90
2002;DHT22;1003;48.002;7.788;2023-04-03T15:12:40;8.30;99.90
2002;DHT22;1003;48.002;7.788;2023-04-03T15:15:08;8.40;99.90
2002;DHT22;1003;48.002;7.788;2023-04-03T15:17:37;8.10;99.90
2002;DHT22;1003;48.002;7.788;2023-04-03T15:20:11;8.10;99.90
2002;DHT22;1003;48.002;7.788;2023-04-03T15:22:40;8.10;99.90
2002;DHT22;1003;48.002;7.788;2023-04-03T15:25:08;8.10;99.90
2002;DHT22;1003;48.002;7.788;2023-04-03T15:27:38;8.10;99.90
2002;DHT22;1003;48.002;7.788;2023-04-03T15:30:08;8.00;99.90
2002;DHT22;1003;48.002;7.788;2023-04-03T15:32:42;8.10;99.90
2002;DHT22;1003;48.002;7.788;2023-04-03T15:35:09;8.20;99.90
2002;DHT22;1003;48.002;7.788;2023-04-03T15:37:37;8.00;99.90
2002;DHT22;1003;48.002;7.788;2023-04-03T15:40:05;8.00;99.90
2002;DHT22;1003;48.002;7.788;2023-04-03T15:42:34;7.90;99.90
2002;DHT22;1003;48.002;7.788;2023-04-03T15:45:01;7.90;99.90
2002;DHT22;1003;48.002;7.788;2023-04-03T15:47:29;8.00;99.90
2002;DHT22;1003;48.002;7.788;2023-04-03T15:49:58;8.20;99.90
2002;DHT22;1003;48.002;7.788;2023-04-03T15:52:26;8.10;99.90
2002;DHT22;1003;48.002;7.788;2023-04-03T15:54:53;7.90;99.90
2002;DHT22;1003;48.002;7.788;2023-04-03T15:57:20;8.10;99.90
2002;DHT22;1003;48.002;7.788;2023-04-03T15:59:51;8.00;99.90
2002;DHT22;1003;48.002;7.788;2023-04-03T16:02:18;8.10;99.90
2002;DHT22;1003;48.002;7.788;2023-04-03T16:04:49;8.00;99.90
2002;DHT22;1003;48.002;7.788;2023-04-03T16:07:18;7.90;99.90
2002;DHT22;1003;48.002;7.788;2023-04-03T16:09:45;7.80;99.90
2002;DHT22;1003;48.002;7.788;2023-04-03T16:12:12;7.80;99.90
2002;DHT22;1003;48.002;7.788;2023-04-03T16:14:39;7.70;99.90
2002;DHT22;1003;48.002;7.788;2023-04-03T16:17:08;7.70;99.90
2002;DHT22;1003;48.002;7.788;2023-04-03T16:19:35;7.60;99.90
2002;DHT22;1003;48.002;7.788;2023-04-03T16:22:02;7.70;99.90
2002;DHT22;1003;48.002;7.788;2023-04-03T16:24:31;7.70;99.90
2002;DHT22;1003;48.002;7.788;2023-04-03T16:26:59;7.70;99.90
2002;DHT22;1003;48.002;7.788;2023-04-03T16:29:26;7.60;99.90
2002;DHT22;1003;48.002;7.788;2023-04-03T16:31:53;7.50;99.90
2002;DHT22;1003;48.002;7.788;2023-04-03T16:34:20;7.50;99.90
2002;DHT22;1003;48.002;7.788;2023-04-03T16:36:47;7.50;99.90
2002;DHT22;1003;48.002;7.788;2023-04-03T16:39:15;7.50;99.90
2002;DHT22;1003;48.002;7.788;2023-04-03T16:41:43;7.60;99.90
2002;DHT22;1003;48.002;7.788;2023-04-03T16:44:10;7.60;99.90
2002;DHT22;1003;48.002;7.788;2023-04-03T16:46:38;7.50;99.90
2002;DHT22;1003;48.002;7.788;2023-04-03T16:49:05;7.40;99.90
2002;DHT22;1003;48.002;7.788;2023-04-03T16:51:32;7.30;99.90